createdAt,value
2022-09-15T00:00:50.321Z,15.30
2022-09-15T00:03:17.761Z,15.30
2022-09-15T00:05:45.118Z,15.30
2022-09-15T00:08:15.872Z,15.40
2022-09-15T00:11:15.005Z,15.40
2022-09-15T00:13:42.299Z,15.40
2022-09-15T00:16:14.621Z,15.40
2022-09-15T00:18:43.157Z,15.40
2022-09-15T00:21:12.817Z,15.40
2022-09-15T00:23:39.760Z,15.40
2022-09-15T00:26:11.506Z,15.40
2022-09-15T00:28:38.984Z,15.50
2022-09-15T00:31:08.610Z,15.50
2022-09-15T00:33:35.820Z,15.50
2022-09-15T00:36:05.159Z,15.50
2022-09-15T00:38:32.854Z,15.50
2022-09-15T00:41:01.609Z,15.50
2022-09-15T00:43:48.707Z,15.60
2022-09-15T00:46:17.780Z,15.60
2022-09-15T00:49:00.243Z,15.60
2022-09-15T00:51:35.986Z,15.60
2022-09-15T00:54:06.686Z,15.60
2022-09-15T00:56:34.964Z,15.60
2022-09-15T00:59:05.235Z,15.70
2022-09-15T01:01:38.104Z,15.70
2022-09-15T01:04:04.822Z,15.70
2022-09-15T01:06:39.026Z,15.70
2022-09-15T01:09:16.663Z,15.80
2022-09-15T01:11:43.758Z,15.80
2022-09-15T01:14:11.324Z,15.80
2022-09-15T01:17:04.206Z,15.80
2022-09-15T01:19:51.938Z,15.80
2022-09-15T01:22:39.565Z,15.80
2022-09-15T01:25:27.812Z,15.80
2022-09-15T01:28:57.329Z,15.70
2022-09-15T01:31:26.624Z,15.80
2022-09-15T01:34:13.231Z,15.80
2022-09-15T01:36:50.415Z,15.80
2022-09-15T01:39:25.531Z,15.80
2022-09-15T01:41:58.235Z,15.80
2022-09-15T01:44:44.755Z,15.80
2022-09-15T01:47:15.877Z,15.80
2022-09-15T01:49:56.807Z,15.70
2022-09-15T01:52:25.694Z,15.70
2022-09-15T01:54:56.660Z,15.70
2022-09-15T01:57:23.720Z,15.60
2022-09-15T01:59:52.181Z,15.60
2022-09-15T02:02:30.812Z,15.60
2022-09-15T02:05:18.080Z,15.60
2022-09-15T02:07:58.852Z,15.50
2022-09-15T02:10:57.607Z,15.50
2022-09-15T02:14:11.554Z,15.50
2022-09-15T02:16:45.303Z,15.50
2022-09-15T02:19:35.998Z,15.50
2022-09-15T02:22:24.210Z,15.40
2022-09-15T02:25:03.076Z,15.40
2022-09-15T02:27:33.739Z,15.40
2022-09-15T02:30:06.607Z,15.40
2022-09-15T02:32:36.849Z,15.40
2022-09-15T02:35:07.738Z,15.30
2022-09-15T02:37:36.563Z,15.30
2022-09-15T02:40:04.513Z,15.30
2022-09-15T02:42:32.511Z,15.40
2022-09-15T02:45:00.774Z,15.40
2022-09-15T02:47:32.107Z,15.40
2022-09-15T02:49:59.033Z,15.40
2022-09-15T02:52:26.175Z,15.40
2022-09-15T02:54:53.493Z,15.40
2022-09-15T02:57:20.970Z,15.50
2022-09-15T03:00:07.096Z,15.50
2022-09-15T03:02:34.134Z,15.50
2022-09-15T03:05:00.934Z,15.50
2022-09-15T03:07:28.583Z,15.50
2022-09-15T03:09:55.685Z,15.50
2022-09-15T03:12:22.477Z,15.50
2022-09-15T03:14:51.850Z,15.60
2022-09-15T03:17:22.049Z,15.60
2022-09-15T03:19:49.988Z,15.60
2022-09-15T03:22:16.624Z,15.60
2022-09-15T03:24:46.449Z,15.70
2022-09-15T03:27:13.182Z,15.70
2022-09-15T03:29:39.843Z,15.70
2022-09-15T03:32:06.526Z,15.70
2022-09-15T03:34:33.200Z,15.70
2022-09-15T03:36:59.970Z,15.70
2022-09-15T03:39:26.962Z,15.70
2022-09-15T03:41:54.049Z,15.70
2022-09-15T03:44:23.034Z,15.70
2022-09-15T03:46:49.702Z,15.70
2022-09-15T03:49:16.468Z,15.70
2022-09-15T03:51:43.249Z,15.70
2022-09-15T03:54:10.776Z,15.70
2022-09-15T03:56:51.843Z,15.70
2022-09-15T03:59:19.514Z,15.70
2022-09-15T04:01:48.360Z,15.70
2022-09-15T04:04:15.514Z,15.70
2022-09-15T04:06:42.307Z,15.80
2022-09-15T04:09:09.057Z,15.80
2022-09-15T04:11:36.362Z,15.80
2022-09-15T04:14:03.188Z,15.80
2022-09-15T04:16:30.212Z,15.80
2022-09-15T04:18:57.659Z,15.80
2022-09-15T04:21:26.788Z,15.80
2022-09-15T04:23:54.194Z,15.80
2022-09-15T04:26:28.271Z,15.80
2022-09-15T04:28:54.950Z,15.80
2022-09-15T04:31:21.778Z,15.80
2022-09-15T04:33:52.135Z,15.80
2022-09-15T04:36:21.648Z,15.80
2022-09-15T04:38:52.252Z,15.80
2022-09-15T04:41:19.901Z,15.70
2022-09-15T04:43:47.599Z,15.70
2022-09-15T04:46:15.644Z,15.70
2022-09-15T04:48:44.170Z,15.70
2022-09-15T04:51:13.387Z,15.60
2022-09-15T04:53:40.600Z,15.60
2022-09-15T04:56:12.899Z,15.60
2022-09-15T04:58:48.563Z,15.60
2022-09-15T05:01:29.585Z,15.50
2022-09-15T05:03:56.698Z,15.60
2022-09-15T05:06:25.784Z,15.50
2022-09-15T05:08:55.029Z,15.50
2022-09-15T05:11:22.402Z,15.50
2022-09-15T05:13:51.911Z,15.60
2022-09-15T05:16:26.905Z,15.50
2022-09-15T05:18:55.731Z,15.50
2022-09-15T05:21:24.198Z,15.50
2022-09-15T05:23:52.133Z,15.50
2022-09-15T05:26:21.752Z,15.50
2022-09-15T05:28:48.529Z,15.50
2022-09-15T05:31:24.079Z,15.50
2022-09-15T05:33:54.443Z,15.50
2022-09-15T05:36:25.337Z,15.50
2022-09-15T05:38:59.263Z,15.40
2022-09-15T05:41:27.542Z,15.50
2022-09-15T05:44:02.649Z,15.40
2022-09-15T05:46:30.179Z,15.40
2022-09-15T05:48:59.047Z,15.40
2022-09-15T05:51:27.751Z,15.40
2022-09-15T05:53:57.113Z,15.50
2022-09-15T05:56:23.970Z,15.50
2022-09-15T05:58:50.681Z,15.50
2022-09-15T06:01:23.756Z,15.50
2022-09-15T06:03:51.167Z,15.60
2022-09-15T06:06:18.670Z,15.60
2022-09-15T06:08:50.059Z,15.60
2022-09-15T06:11:22.409Z,15.60
2022-09-15T06:13:49.300Z,15.60
2022-09-15T06:16:19.546Z,15.70
2022-09-15T06:18:51.102Z,15.70
2022-09-15T06:21:26.628Z,15.70
2022-09-15T06:23:55.412Z,15.70
2022-09-15T06:26:25.049Z,15.80
2022-09-15T06:29:00.577Z,15.80
2022-09-15T06:31:32.422Z,15.90
2022-09-15T06:34:00.206Z,16.00
2022-09-15T06:36:33.397Z,16.00
2022-09-15T06:39:00.435Z,16.20
2022-09-15T06:41:35.350Z,16.20
2022-09-15T06:44:10.106Z,16.30
2022-09-15T06:46:36.878Z,16.40
2022-09-15T06:49:03.925Z,16.50
2022-09-15T06:51:35.452Z,16.50
2022-09-15T06:54:03.063Z,16.50
2022-09-15T06:56:31.694Z,16.60
2022-09-15T06:59:01.440Z,16.60
2022-09-15T07:01:30.541Z,16.70
2022-09-15T07:03:59.040Z,16.70
2022-09-15T07:06:29.653Z,16.70
2022-09-15T07:08:57.199Z,16.80
2022-09-15T07:11:24.470Z,16.90
2022-09-15T07:13:51.733Z,16.90
2022-09-15T07:16:19.542Z,17.00
2022-09-15T07:18:47.631Z,17.00
2022-09-15T07:21:17.560Z,17.00
2022-09-15T07:23:44.631Z,17.00
2022-09-15T07:26:21.256Z,17.10
2022-09-15T07:28:55.221Z,17.10
2022-09-15T07:31:24.433Z,17.10
2022-09-15T07:33:51.454Z,17.20
2022-09-15T07:36:19.031Z,17.30
2022-09-15T07:38:48.280Z,17.30
2022-09-15T07:41:38.251Z,17.30
2022-09-15T07:44:09.155Z,17.40
2022-09-15T07:46:36.404Z,17.40
2022-09-15T07:49:04.444Z,17.40
2022-09-15T07:51:33.519Z,17.40
2022-09-15T07:54:00.489Z,17.50
2022-09-15T07:56:27.428Z,17.50
2022-09-15T07:58:54.185Z,17.60
2022-09-15T08:01:22.644Z,17.50
2022-09-15T08:03:53.101Z,17.60
2022-09-15T08:06:25.002Z,17.70
2022-09-15T08:08:59.956Z,17.70
2022-09-15T08:11:30.735Z,17.80
2022-09-15T08:14:03.528Z,17.80
2022-09-15T08:16:31.014Z,17.90
2022-09-15T08:18:57.894Z,17.90
2022-09-15T08:21:24.680Z,18.00
2022-09-15T08:26:28.449Z,18.10
2022-09-15T08:28:55.414Z,18.20
2022-09-15T08:31:24.162Z,18.20
2022-09-15T08:33:53.382Z,18.30
2022-09-15T08:36:24.569Z,18.30
2022-09-15T08:38:54.335Z,18.40
2022-09-15T08:41:34.179Z,18.50
2022-09-15T08:44:30.975Z,18.50
2022-09-15T08:47:09.919Z,18.50
2022-09-15T08:49:51.501Z,18.60
2022-09-15T08:52:36.938Z,18.60
2022-09-15T08:55:12.569Z,18.70
2022-09-15T08:57:39.444Z,18.60
2022-09-15T09:00:13.485Z,18.60
2022-09-15T09:03:09.086Z,18.70
2022-09-15T09:05:41.892Z,18.70
2022-09-15T09:08:20.663Z,18.70
2022-09-15T09:11:08.731Z,18.60
2022-09-15T09:13:52.894Z,18.60
2022-09-15T09:16:32.942Z,18.60
2022-09-15T09:19:32.464Z,18.60
2022-09-15T09:22:07.491Z,18.50
2022-09-15T09:24:46.268Z,18.50
2022-09-15T09:27:19.095Z,18.40
2022-09-15T09:29:54.140Z,18.30
2022-09-15T09:32:27.445Z,18.30
2022-09-15T09:34:59.157Z,18.30
2022-09-15T09:37:25.898Z,18.30
2022-09-15T09:39:52.776Z,18.40
2022-09-15T09:42:20.140Z,18.50
2022-09-15T09:44:49.951Z,18.60
2022-09-15T09:47:17.205Z,18.70
2022-09-15T09:49:49.059Z,18.80
2022-09-15T09:52:37.164Z,18.90
2022-09-15T09:55:19.108Z,19.10
2022-09-15T09:57:45.831Z,19.50
2022-09-15T10:00:35.599Z,19.70
2022-09-15T10:03:28.026Z,19.70
2022-09-15T10:06:24.040Z,19.60
2022-09-15T10:09:09.475Z,19.60
2022-09-15T10:11:43.657Z,19.30
2022-09-15T10:14:31.614Z,19.10
2022-09-15T10:17:13.247Z,18.90
2022-09-15T10:19:42.983Z,18.60
2022-09-15T10:22:12.786Z,18.40
2022-09-15T10:24:40.279Z,18.30
2022-09-15T10:27:27.472Z,18.20
2022-09-15T10:29:55.053Z,18.10
2022-09-15T10:32:25.537Z,18.00
2022-09-15T10:35:06.182Z,18.00
2022-09-15T10:37:45.016Z,18.00
2022-09-15T10:40:42.443Z,17.90
2022-09-15T10:43:50.788Z,17.90
2022-09-15T10:46:44.888Z,17.90
2022-09-15T10:49:29.515Z,17.90
2022-09-15T10:52:28.980Z,18.00
2022-09-15T10:55:10.923Z,18.00
2022-09-15T10:57:49.941Z,18.10
2022-09-15T11:00:22.758Z,18.20
2022-09-15T11:03:12.316Z,18.40
2022-09-15T11:05:44.825Z,18.60
2022-09-15T11:08:31.894Z,18.90
2022-09-15T11:11:23.288Z,19.30
2022-09-15T11:14:04.732Z,19.60
2022-09-15T11:16:56.044Z,19.90
2022-09-15T11:19:44.348Z,20.10
2022-09-15T11:22:33.046Z,20.40
2022-09-15T11:25:03.906Z,20.60
2022-09-15T11:27:37.318Z,20.70
2022-09-15T11:30:06.580Z,20.90
2022-09-15T11:32:46.831Z,21.00
2022-09-15T11:35:23.029Z,21.30
2022-09-15T11:37:56.903Z,21.30
2022-09-15T11:40:36.955Z,21.30
2022-09-15T11:43:21.172Z,21.30
2022-09-15T11:45:57.991Z,21.40
2022-09-15T11:48:47.238Z,21.50
2022-09-15T11:51:17.165Z,21.70
2022-09-15T11:53:47.513Z,21.70
2022-09-15T11:56:47.397Z,21.70
2022-09-15T11:59:20.191Z,21.80
2022-09-15T12:02:12.133Z,22.00
2022-09-15T12:04:46.236Z,22.30
2022-09-15T12:07:18.670Z,22.50
2022-09-15T12:09:45.571Z,22.70
2022-09-15T12:12:23.086Z,22.70
2022-09-15T12:14:54.032Z,22.70
2022-09-15T12:17:31.881Z,22.70
2022-09-15T12:20:04.326Z,22.70
2022-09-15T12:22:37.395Z,22.70
2022-09-15T12:25:38.395Z,22.60
2022-09-15T12:28:23.179Z,22.70
2022-09-15T12:31:12.285Z,22.70
2022-09-15T12:34:06.825Z,22.80
2022-09-15T12:36:48.211Z,23.00
2022-09-15T12:39:34.354Z,23.10
2022-09-15T12:42:00.987Z,23.10
2022-09-15T12:44:47.739Z,23.00
2022-09-15T12:47:26.612Z,23.00
2022-09-15T12:49:57.211Z,23.20
2022-09-15T12:52:25.488Z,23.20
2022-09-15T12:55:26.837Z,23.30
2022-09-15T12:58:00.118Z,23.40
2022-09-15T13:00:33.643Z,23.40
2022-09-15T13:03:01.947Z,23.40
2022-09-15T13:05:46.127Z,23.40
2022-09-15T13:08:34.560Z,23.20
2022-09-15T13:11:05.605Z,23.00
2022-09-15T13:13:43.926Z,22.80
2022-09-15T13:16:48.714Z,22.60
2022-09-15T13:19:41.956Z,22.40
2022-09-15T13:22:11.689Z,22.20
2022-09-15T13:24:57.811Z,22.10
2022-09-15T13:27:36.395Z,22.00
2022-09-15T13:30:18.030Z,21.90
2022-09-15T13:33:26.618Z,21.70
2022-09-15T13:36:14.911Z,21.60
2022-09-15T13:38:59.752Z,21.50
2022-09-15T13:41:52.236Z,21.40
2022-09-15T13:44:26.723Z,21.30
2022-09-15T13:47:18.011Z,21.20
2022-09-15T13:49:53.409Z,21.20
2022-09-15T13:52:23.441Z,21.20
2022-09-15T13:55:10.354Z,21.10
2022-09-15T14:00:33.938Z,21.10
2022-09-15T14:03:09.753Z,21.20
2022-09-15T14:05:37.374Z,21.20
2022-09-15T14:08:11.665Z,21.10
2022-09-15T14:10:50.386Z,21.00
2022-09-15T14:13:21.991Z,20.90
2022-09-15T14:16:11.782Z,20.80
2022-09-15T14:18:44.328Z,20.80
2022-09-15T14:21:20.192Z,20.70
2022-09-15T14:23:48.752Z,20.70
2022-09-15T14:26:17.574Z,20.60
2022-09-15T14:28:57.237Z,20.60
2022-09-15T14:31:43.522Z,20.60
2022-09-15T14:34:26.333Z,20.70
2022-09-15T14:37:04.177Z,20.70
2022-09-15T14:39:32.031Z,20.70
2022-09-15T14:47:31.280Z,20.70
2022-09-15T14:50:20.464Z,20.60
2022-09-15T14:53:00.140Z,20.60
2022-09-15T14:55:52.004Z,20.60
2022-09-15T14:58:35.593Z,20.50
2022-09-15T15:01:15.700Z,20.30
2022-09-15T15:03:59.992Z,20.20
2022-09-15T15:06:35.101Z,20.20
2022-09-15T15:09:33.169Z,20.10
2022-09-15T15:12:05.219Z,20.00
2022-09-15T15:14:32.608Z,19.90
2022-09-15T15:17:02.417Z,19.90
2022-09-15T15:19:41.436Z,19.90
2022-09-15T15:22:19.950Z,19.80
2022-09-15T15:24:49.948Z,19.80
2022-09-15T15:27:32.486Z,19.70
2022-09-15T15:30:33.790Z,19.70
2022-09-15T15:33:02.125Z,19.70
2022-09-15T15:35:30.678Z,19.60
2022-09-15T15:38:07.793Z,19.60
2022-09-15T15:40:37.585Z,19.60
2022-09-15T15:43:07.908Z,19.50
2022-09-15T15:45:47.495Z,19.40
2022-09-15T15:48:14.269Z,19.30
2022-09-15T15:50:40.967Z,19.30
2022-09-15T15:53:07.664Z,19.20
2022-09-15T15:55:40.751Z,19.10
2022-09-15T15:58:09.520Z,18.90
2022-09-15T16:00:41.910Z,18.80
2022-09-15T16:03:09.226Z,18.60
2022-09-15T16:05:37.155Z,18.50
2022-09-15T16:08:10.641Z,18.40
2022-09-15T16:10:42.011Z,18.30
2022-09-15T16:13:12.880Z,18.20
2022-09-15T16:15:39.629Z,18.10
2022-09-15T16:18:06.387Z,18.10
2022-09-15T16:20:35.626Z,18.10
2022-09-15T16:23:05.909Z,18.00
2022-09-15T16:25:59.481Z,18.00
2022-09-15T16:28:26.562Z,18.00
2022-09-15T16:30:53.392Z,18.00
2022-09-15T16:33:20.191Z,18.00
2022-09-15T16:35:55.194Z,17.90
2022-09-15T16:38:25.522Z,17.90
2022-09-15T16:40:52.755Z,17.90
2022-09-15T16:43:21.609Z,17.80
2022-09-15T16:45:49.562Z,17.90
2022-09-15T16:48:16.758Z,17.90
2022-09-15T16:51:09.538Z,17.80
2022-09-15T16:53:31.099Z,17.80
2022-09-15T16:55:57.959Z,17.80
2022-09-15T16:58:24.770Z,17.80
2022-09-15T17:00:52.851Z,17.70
2022-09-15T17:03:21.776Z,17.70
2022-09-15T17:05:50.473Z,17.70
2022-09-15T17:08:19.292Z,17.60
2022-09-15T17:10:46.896Z,17.60
2022-09-15T17:13:23.087Z,17.60
2022-09-15T17:15:54.203Z,17.50
2022-09-15T17:18:21.991Z,17.40
2022-09-15T17:20:49.756Z,17.40
2022-09-15T17:23:21.187Z,17.30
2022-09-15T17:25:57.227Z,17.30
2022-09-15T17:28:26.619Z,17.20
2022-09-15T17:30:58.832Z,17.20
2022-09-15T17:33:25.816Z,17.10
2022-09-15T17:35:52.725Z,17.00
2022-09-15T17:38:23.143Z,17.00
2022-09-15T17:40:50.944Z,16.90
2022-09-15T17:43:20.231Z,16.90
2022-09-15T17:45:48.787Z,16.80
2022-09-15T17:48:16.446Z,16.80
2022-09-15T17:50:43.821Z,16.70
2022-09-15T17:53:14.323Z,16.70
2022-09-15T17:55:44.718Z,16.60
2022-09-15T17:58:12.267Z,16.50
2022-09-15T18:00:41.768Z,16.50
2022-09-15T18:03:20.220Z,16.40
2022-09-15T18:05:47.348Z,16.40
2022-09-15T18:08:14.300Z,16.30
2022-09-15T18:10:41.023Z,16.30
2022-09-15T18:13:13.308Z,16.20
2022-09-15T18:15:40.226Z,16.20
2022-09-15T18:18:09.114Z,16.10
2022-09-15T18:20:36.871Z,16.10
2022-09-15T18:23:03.570Z,16.10
2022-09-15T18:25:35.776Z,16.00
2022-09-15T18:28:03.586Z,16.00
2022-09-15T18:30:41.950Z,15.90
2022-09-15T18:33:18.376Z,15.90
2022-09-15T18:35:46.384Z,15.80
2022-09-15T18:38:13.486Z,15.80
2022-09-15T18:40:49.091Z,15.80
2022-09-15T18:43:19.882Z,15.70
2022-09-15T18:45:46.964Z,15.70
2022-09-15T18:48:13.774Z,15.70
2022-09-15T18:50:41.382Z,15.70
2022-09-15T18:53:08.789Z,15.70
2022-09-15T18:55:36.367Z,15.70
2022-09-15T18:58:03.128Z,15.60
2022-09-15T19:00:29.994Z,15.60
2022-09-15T19:03:01.766Z,15.60
2022-09-15T19:05:32.967Z,15.60
2022-09-15T19:08:02.723Z,15.50
2022-09-15T19:10:30.370Z,15.50
2022-09-15T19:12:57.319Z,15.50
2022-09-15T19:15:24.211Z,15.50
2022-09-15T19:17:51.240Z,15.50
2022-09-15T19:20:18.500Z,15.50
2022-09-15T19:22:46.048Z,15.40
2022-09-15T19:25:15.613Z,15.40
2022-09-15T19:27:43.254Z,15.40
2022-09-15T19:30:10.841Z,15.40
2022-09-15T19:32:39.269Z,15.40
2022-09-15T19:35:06.717Z,15.30
2022-09-15T19:37:36.922Z,15.30
2022-09-15T19:40:08.340Z,15.30
2022-09-15T19:42:36.112Z,15.20
2022-09-15T19:45:02.797Z,15.20
2022-09-15T19:47:29.711Z,15.20
2022-09-15T19:49:56.460Z,15.10
2022-09-15T19:52:23.314Z,15.10
2022-09-15T19:54:50.039Z,15.10
2022-09-15T19:57:16.920Z,15.00
2022-09-15T19:59:44.709Z,15.00
2022-09-15T20:02:12.162Z,14.90
2022-09-15T20:07:24.178Z,14.90
2022-09-15T20:09:53.450Z,14.80
2022-09-15T20:14:51.369Z,14.70
2022-09-15T20:17:18.234Z,14.70
2022-09-15T20:19:48.408Z,14.60
2022-09-15T20:22:15.095Z,14.60
2022-09-15T20:24:41.851Z,14.60
2022-09-15T20:27:16.140Z,14.60
2022-09-15T20:29:43.060Z,14.60
2022-09-15T20:32:09.802Z,14.60
2022-09-15T20:34:36.421Z,14.60
2022-09-15T20:37:03.359Z,14.60
2022-09-15T20:39:30.112Z,14.60
2022-09-15T20:41:57.718Z,14.60
2022-09-15T20:44:24.590Z,14.70
2022-09-15T20:46:52.600Z,14.70
2022-09-15T20:49:19.702Z,14.70
2022-09-15T20:51:46.410Z,14.70
2022-09-15T20:54:13.200Z,14.70
2022-09-15T20:56:39.924Z,14.70
2022-09-15T20:59:10.220Z,14.70
2022-09-15T21:01:38.688Z,14.70
2022-09-15T21:04:06.685Z,14.70
2022-09-15T21:06:35.001Z,14.70
2022-09-15T21:09:03.173Z,14.70
2022-09-15T21:16:54.045Z,14.70
2022-09-15T21:19:20.909Z,14.70
2022-09-15T21:21:52.347Z,14.80
2022-09-15T21:24:19.008Z,14.70
2022-09-15T21:27:04.227Z,14.80
2022-09-15T21:29:31.571Z,14.80
2022-09-15T21:31:58.931Z,14.80
2022-09-15T21:34:26.402Z,14.80
2022-09-15T21:36:53.723Z,14.80
2022-09-15T21:39:20.560Z,14.80
2022-09-15T21:41:47.308Z,14.80
2022-09-15T21:44:14.106Z,14.80
2022-09-15T21:46:40.986Z,14.70
2022-09-15T21:49:08.773Z,14.70
2022-09-15T21:51:36.320Z,14.70
2022-09-15T21:54:03.105Z,14.80
2022-09-15T21:56:30.141Z,14.80
2022-09-15T21:58:57.301Z,14.80
2022-09-15T22:01:29.241Z,14.70
2022-09-15T22:04:07.234Z,14.70
2022-09-15T22:06:41.606Z,14.70
2022-09-15T22:09:14.529Z,14.70
2022-09-15T22:11:41.600Z,14.70
2022-09-15T22:14:09.394Z,14.70
2022-09-15T22:16:41.589Z,14.70
2022-09-15T22:19:10.055Z,14.70
2022-09-15T22:21:41.933Z,14.70
2022-09-15T22:24:11.453Z,14.70
2022-09-15T22:26:38.727Z,14.70
2022-09-15T22:29:05.962Z,14.60
2022-09-15T22:31:33.241Z,14.60
2022-09-15T22:33:59.964Z,14.60
2022-09-15T22:36:30.146Z,14.60
2022-09-15T22:39:04.274Z,14.60
2022-09-15T22:41:37.100Z,14.60
2022-09-15T22:44:07.863Z,14.60
2022-09-15T22:46:35.122Z,14.60
2022-09-15T22:49:02.413Z,14.60
2022-09-15T22:51:29.197Z,14.60
2022-09-15T22:53:57.355Z,14.60
2022-09-15T22:56:26.749Z,14.60
2022-09-15T22:58:54.479Z,14.60
2022-09-15T23:01:23.763Z,14.60
2022-09-15T23:03:59.037Z,14.60
2022-09-15T23:06:29.033Z,14.60
2022-09-15T23:08:58.030Z,14.60
2022-09-15T23:11:28.012Z,14.60
2022-09-15T23:13:55.572Z,14.60
2022-09-15T23:16:24.302Z,14.60
2022-09-15T23:18:51.686Z,14.60
2022-09-15T23:21:19.361Z,14.60
2022-09-15T23:23:48.826Z,14.50
2022-09-15T23:26:19.506Z,14.50
2022-09-15T23:28:46.986Z,14.50
2022-09-15T23:31:14.061Z,14.40
2022-09-15T23:33:41.642Z,14.40
2022-09-15T23:36:11.877Z,14.40
2022-09-15T23:38:45.067Z,14.40
2022-09-15T23:41:12.799Z,14.40
2022-09-15T23:43:39.573Z,14.40
2022-09-15T23:46:07.029Z,14.40
2022-09-15T23:48:33.895Z,14.40
2022-09-15T23:51:01.130Z,14.40
2022-09-15T23:53:28.822Z,14.40
2022-09-15T23:55:55.572Z,14.40
2022-09-15T23:58:22.311Z,14.40
